Crickhowell, United Kingdom
Current Conditions -  °F | °C
As of 9:20 PM on Saturday 22 Nov 2014 (Local Time) from EGFF Reporting Station
Scattered Clouds Scattered Clouds  
Wind Chill: 10°   Ceiling: Unl
Heat Index: 10°   Visibility: 6mi
Dew Point:   Wind: 5mph
Humidity: 94%   Direction: 340°NNW
Pressure: 29.97"   Gusts: NA
Location:  51.86°N, 3.14°W
Report Text: EGFF 222120Z 34004KT 9999 SCT032 10/09 Q1015
Loading
Personal Weather Stations






























Interactive Weather Map New forecast layout! Learn more

10-Day Weather Forecast

Advertisements
Track Severe Weather on mobile